Terminal Aerodrome Forecast
Issued by NWS

Current Version | Previous Version | Text Only | Print | Product List | Glossary Off
Versions: 1 2 3 4 5 6 7 8 9 10 11 12 13 14 15 16 17 18

000
FTUS41 KRNK 150129 AAD
TAFLWB
TAF AMD
KLWB 150129Z 1501/1524 00000KT P6SM SCT020 OVC045
      TEMPO 1501/1503 2SM SHRA BR OVC012
     FM150300 00000KT 2SM +SHRA BR VCTS OVC020CB
     FM150900 00000KT 3SM BR OVC010
     FM151600 VRB03KT P6SM BKN040=

USA.gov is the U.S. government's official web portal to all federal, state and local government web resources and services.